Sugarloaf Mountain, Maine
Current Conditions -  °F | °C
As of 9:35 PM on Friday 28 Nov 2014 (Local Time) from KWVL Reporting Station
Few Clouds Few Clouds  
Wind Chill: 21°   Ceiling: Unl
Heat Index: 21°   Visibility: 10mi
Dew Point: 10°   Wind: 3mph
Humidity: 63%   Direction: 290°WNW
Pressure: 30.08"   Gusts: NA
Location:  45.1°N, 70.2°W
Report Text: KWVL 290235Z 29003KT 10SM FEW044 M06/M12 A3008 RMK AO1
Loading
Personal Weather Stations






























Interactive Weather Map New forecast layout! Learn more

10-Day Weather Forecast

Advertisements
Track Severe Weather on mobile